sensor_id;sensor_type;location;lat;lon;timestamp;pressure;altitude;pressure_sealevel;temperature;humidity
32456;BME280;18912;43.270;27.942;2023-01-16T00:00:17;98235.84;;;11.62;70.20
32456;BME280;18912;43.270;27.942;2023-01-16T00:02:42;98246.25;;;11.52;71.46
32456;BME280;18912;43.270;27.942;2023-01-16T00:05:08;98231.66;;;11.79;70.21
32456;BME280;18912;43.270;27.942;2023-01-16T00:07:33;98247.91;;;11.59;71.09
32456;BME280;18912;43.270;27.942;2023-01-16T00:09:59;98232.31;;;11.42;71.75
32456;BME280;18912;43.270;27.942;2023-01-16T00:12:24;98233.75;;;11.24;73.39
32456;BME280;18912;43.270;27.942;2023-01-16T00:14:50;98222.53;;;11.41;72.25
32456;BME280;18912;43.270;27.942;2023-01-16T00:17:15;98235.22;;;11.27;73.25
32456;BME280;18912;43.270;27.942;2023-01-16T00:19:41;98230.66;;;11.01;74.32
32456;BME280;18912;43.270;27.942;2023-01-16T00:22:06;98230.44;;;11.09;74.40
32456;BME280;18912;43.270;27.942;2023-01-16T00:24:32;98222.94;;;10.98;75.17
32456;BME280;18912;43.270;27.942;2023-01-16T00:26:57;98227.31;;;11.25;73.75
32456;BME280;18912;43.270;27.942;2023-01-16T00:29:23;98224.19;;;11.35;73.38
32456;BME280;18912;43.270;27.942;2023-01-16T00:31:48;98219.00;;;11.20;74.01
32456;BME280;18912;43.270;27.942;2023-01-16T00:34:14;98209.97;;;11.85;72.13
32456;BME280;18912;43.270;27.942;2023-01-16T00:36:39;98214.22;;;11.22;74.35
32456;BME280;18912;43.270;27.942;2023-01-16T00:39:05;98204.38;;;11.61;72.14
32456;BME280;18912;43.270;27.942;2023-01-16T00:41:30;98202.16;;;11.32;73.11
32456;BME280;18912;43.270;27.942;2023-01-16T00:43:56;98199.84;;;11.15;74.16
32456;BME280;18912;43.270;27.942;2023-01-16T00:46:24;98200.88;;;11.41;73.46
32456;BME280;18912;43.270;27.942;2023-01-16T00:48:50;98195.84;;;11.83;71.32
32456;BME280;18912;43.270;27.942;2023-01-16T00:51:15;98195.44;;;11.67;71.64
32456;BME280;18912;43.270;27.942;2023-01-16T00:53:41;98201.69;;;11.67;72.16
32456;BME280;18912;43.270;27.942;2023-01-16T00:56:07;98189.75;;;11.88;71.05
32456;BME280;18912;43.270;27.942;2023-01-16T00:58:33;98186.06;;;11.69;72.72
32456;BME280;18912;43.270;27.942;2023-01-16T01:01:00;98188.34;;;11.72;72.17
32456;BME280;18912;43.270;27.942;2023-01-16T01:03:27;98182.13;;;11.52;73.41
32456;BME280;18912;43.270;27.942;2023-01-16T01:05:53;98178.34;;;11.79;72.66
32456;BME280;18912;43.270;27.942;2023-01-16T01:08:18;98177.28;;;11.80;72.45
32456;BME280;18912;43.270;27.942;2023-01-16T01:10:44;98178.41;;;11.34;74.62
32456;BME280;18912;43.270;27.942;2023-01-16T01:13:10;98174.59;;;11.61;73.68
32456;BME280;18912;43.270;27.942;2023-01-16T01:15:35;98163.13;;;11.59;73.79
32456;BME280;18912;43.270;27.942;2023-01-16T01:18:01;98163.00;;;11.41;74.96
32456;BME280;18912;43.270;27.942;2023-01-16T01:20:26;98170.00;;;11.81;73.81
32456;BME280;18912;43.270;27.942;2023-01-16T01:22:52;98166.88;;;11.77;74.13
32456;BME280;18912;43.270;27.942;2023-01-16T01:25:17;98152.84;;;11.16;75.38
32456;BME280;18912;43.270;27.942;2023-01-16T01:27:43;98159.88;;;11.30;75.49
32456;BME280;18912;43.270;27.942;2023-01-16T01:30:09;98150.56;;;11.07;77.03
32456;BME280;18912;43.270;27.942;2023-01-16T01:32:35;98144.31;;;11.13;76.42
32456;BME280;18912;43.270;27.942;2023-01-16T01:35:03;98143.41;;;11.39;76.43
32456;BME280;18912;43.270;27.942;2023-01-16T01:37:29;98139.69;;;11.26;76.69
32456;BME280;18912;43.270;27.942;2023-01-16T01:39:55;98143.00;;;11.35;76.45
32456;BME280;18912;43.270;27.942;2023-01-16T01:42:20;98139.31;;;10.90;79.06
32456;BME280;18912;43.270;27.942;2023-01-16T01:47:42;98124.06;;;11.28;77.11
32456;BME280;18912;43.270;27.942;2023-01-16T01:52:59;98137.97;;;11.58;76.86
32456;BME280;18912;43.270;27.942;2023-01-16T01:55:26;98140.00;;;11.76;76.27
32456;BME280;18912;43.270;27.942;2023-01-16T01:57:56;98132.78;;;11.44;78.55
32456;BME280;18912;43.270;27.942;2023-01-16T02:00:25;98135.72;;;11.36;78.36
32456;BME280;18912;43.270;27.942;2023-01-16T02:05:27;98139.66;;;11.53;77.97
32456;BME280;18912;43.270;27.942;2023-01-16T02:07:54;98136.13;;;11.32;78.15
32456;BME280;18912;43.270;27.942;2023-01-16T02:10:27;98127.25;;;10.99;80.07
32456;BME280;18912;43.270;27.942;2023-01-16T02:12:55;98124.09;;;11.22;79.83
32456;BME280;18912;43.270;27.942;2023-01-16T02:15:21;98126.78;;;11.28;79.33
32456;BME280;18912;43.270;27.942;2023-01-16T02:17:48;98123.19;;;11.48;77.94
32456;BME280;18912;43.270;27.942;2023-01-16T02:20:40;98130.16;;;11.11;79.93
32456;BME280;18912;43.270;27.942;2023-01-16T02:41:54;98141.69;;;11.57;78.08
32456;BME280;18912;43.270;27.942;2023-01-16T02:44:27;98132.31;;;11.73;77.04
32456;BME280;18912;43.270;27.942;2023-01-16T02:49:30;98132.78;;;12.07;74.02
32456;BME280;18912;43.270;27.942;2023-01-16T02:52:15;98138.75;;;11.78;75.92
32456;BME280;18912;43.270;27.942;2023-01-16T02:55:02;98131.19;;;12.31;73.18
32456;BME280;18912;43.270;27.942;2023-01-16T02:57:36;98126.44;;;11.89;75.03
32456;BME280;18912;43.270;27.942;2023-01-16T03:00:05;98127.38;;;12.01;73.78
32456;BME280;18912;43.270;27.942;2023-01-16T03:02:31;98113.78;;;11.70;74.58
32456;BME280;18912;43.270;27.942;2023-01-16T03:04:56;98119.09;;;11.89;73.92
32456;BME280;18912;43.270;27.942;2023-01-16T03:15:34;98107.88;;;12.23;73.47
32456;BME280;18912;43.270;27.942;2023-01-16T03:21:27;98091.47;;;12.12;73.88
32456;BME280;18912;43.270;27.942;2023-01-16T03:24:10;98094.63;;;12.09;72.36
32456;BME280;18912;43.270;27.942;2023-01-16T03:26:50;98085.81;;;11.89;73.94
32456;BME280;18912;43.270;27.942;2023-01-16T03:32:27;98084.31;;;12.31;72.44
32456;BME280;18912;43.270;27.942;2023-01-16T03:35:32;98098.09;;;11.85;73.14
32456;BME280;18912;43.270;27.942;2023-01-16T03:38:07;98089.84;;;12.04;73.08
32456;BME280;18912;43.270;27.942;2023-01-16T03:40:37;98090.19;;;12.21;71.03
32456;BME280;18912;43.270;27.942;2023-01-16T03:43:26;98089.66;;;12.37;71.23
32456;BME280;18912;43.270;27.942;2023-01-16T03:48:29;98097.38;;;12.40;71.16
32456;BME280;18912;43.270;27.942;2023-01-16T03:51:00;98104.06;;;12.38;70.89
32456;BME280;18912;43.270;27.942;2023-01-16T03:53:33;98100.94;;;12.34;70.37
32456;BME280;18912;43.270;27.942;2023-01-16T03:58:31;98101.53;;;12.05;71.82
32456;BME280;18912;43.270;27.942;2023-01-16T04:04:20;98094.19;;;12.12;72.51
32456;BME280;18912;43.270;27.942;2023-01-16T04:07:04;98098.91;;;11.85;73.34
32456;BME280;18912;43.270;27.942;2023-01-16T04:09:49;98087.44;;;11.90;73.28
32456;BME280;18912;43.270;27.942;2023-01-16T04:12:21;98093.00;;;12.08;71.93
32456;BME280;18912;43.270;27.942;2023-01-16T04:14:56;98086.00;;;12.25;71.79
32456;BME280;18912;43.270;27.942;2023-01-16T04:17:23;98090.78;;;11.92;72.59
32456;BME280;18912;43.270;27.942;2023-01-16T04:19:49;98085.44;;;12.10;71.95
32456;BME280;18912;43.270;27.942;2023-01-16T04:22:33;98075.91;;;12.01;71.88
32456;BME280;18912;43.270;27.942;2023-01-16T04:25:01;98076.03;;;12.19;70.16
32456;BME280;18912;43.270;27.942;2023-01-16T04:27:27;98077.53;;;11.77;72.80
32456;BME280;18912;43.270;27.942;2023-01-16T04:29:53;98076.06;;;11.68;72.09
32456;BME280;18912;43.270;27.942;2023-01-16T04:32:19;98063.63;;;11.54;72.74
32456;BME280;18912;43.270;27.942;2023-01-16T04:34:44;98078.69;;;11.94;71.09
32456;BME280;18912;43.270;27.942;2023-01-16T04:37:14;98063.47;;;11.43;73.09
32456;BME280;18912;43.270;27.942;2023-01-16T04:39:40;98066.34;;;11.48;73.36
32456;BME280;18912;43.270;27.942;2023-01-16T04:42:07;98068.97;;;11.16;73.24
32456;BME280;18912;43.270;27.942;2023-01-16T04:44:32;98061.25;;;11.13;73.10
32456;BME280;18912;43.270;27.942;2023-01-16T04:46:58;98066.00;;;11.31;73.07
32456;BME280;18912;43.270;27.942;2023-01-16T04:49:23;98057.72;;;11.19;72.68
32456;BME280;18912;43.270;27.942;2023-01-16T04:51:49;98061.19;;;11.40;71.92
32456;BME280;18912;43.270;27.942;2023-01-16T04:54:16;98049.63;;;11.00;72.51
32456;BME280;18912;43.270;27.942;2023-01-16T04:56:42;98052.41;;;11.51;70.10
32456;BME280;18912;43.270;27.942;2023-01-16T04:59:08;98044.63;;;11.74;68.97
32456;BME280;18912;43.270;27.942;2023-01-16T05:01:34;98043.41;;;11.70;67.99
32456;BME280;18912;43.270;27.942;2023-01-16T05:04:02;98040.41;;;11.34;68.46
32456;BME280;18912;43.270;27.942;2023-01-16T05:06:27;98038.72;;;11.32;68.17
32456;BME280;18912;43.270;27.942;2023-01-16T05:08:53;98048.91;;;11.30;68.46
32456;BME280;18912;43.270;27.942;2023-01-16T05:11:18;98035.66;;;11.22;69.56
32456;BME280;18912;43.270;27.942;2023-01-16T05:13:44;98035.53;;;11.49;70.26
32456;BME280;18912;43.270;27.942;2023-01-16T05:16:09;98030.69;;;11.13;71.82
32456;BME280;18912;43.270;27.942;2023-01-16T05:18:35;98036.22;;;11.38;71.25
32456;BME280;18912;43.270;27.942;2023-01-16T05:21:01;98037.69;;;11.34;71.62
32456;BME280;18912;43.270;27.942;2023-01-16T05:23:27;98035.84;;;11.27;72.86
32456;BME280;18912;43.270;27.942;2023-01-16T05:25:52;98033.66;;;10.66;74.40
32456;BME280;18912;43.270;27.942;2023-01-16T05:28:19;98037.41;;;10.84;73.95
32456;BME280;18912;43.270;27.942;2023-01-16T05:30:47;98043.78;;;11.09;72.82
32456;BME280;18912;43.270;27.942;2023-01-16T05:33:13;98034.91;;;10.89;74.09
32456;BME280;18912;43.270;27.942;2023-01-16T05:35:38;98028.91;;;10.55;74.93
32456;BME280;18912;43.270;27.942;2023-01-16T05:38:04;98019.09;;;10.73;74.45
32456;BME280;18912;43.270;27.942;2023-01-16T05:40:30;98018.19;;;11.18;72.47
32456;BME280;18912;43.270;27.942;2023-01-16T05:42:56;98012.22;;;11.48;70.98
32456;BME280;18912;43.270;27.942;2023-01-16T05:45:21;98016.69;;;11.29;71.22
32456;BME280;18912;43.270;27.942;2023-01-16T05:47:47;98012.03;;;11.49;70.27
32456;BME280;18912;43.270;27.942;2023-01-16T05:50:12;98011.44;;;11.41;70.23
32456;BME280;18912;43.270;27.942;2023-01-16T05:52:38;98016.44;;;11.30;69.42
32456;BME280;18912;43.270;27.942;2023-01-16T05:55:03;98023.03;;;11.48;68.80
32456;BME280;18912;43.270;27.942;2023-01-16T05:57:29;98021.09;;;11.61;68.40
32456;BME280;18912;43.270;27.942;2023-01-16T05:59:55;98018.97;;;11.25;69.07
32456;BME280;18912;43.270;27.942;2023-01-16T06:02:20;98009.56;;;11.35;69.14
32456;BME280;18912;43.270;27.942;2023-01-16T06:04:46;98011.75;;;11.57;67.72
32456;BME280;18912;43.270;27.942;2023-01-16T06:07:12;98022.56;;;11.64;67.05
32456;BME280;18912;43.270;27.942;2023-01-16T06:09:39;98017.13;;;11.70;67.60
32456;BME280;18912;43.270;27.942;2023-01-16T06:12:04;98028.56;;;12.10;66.47
32456;BME280;18912;43.270;27.942;2023-01-16T06:14:35;98027.03;;;11.89;67.02
32456;BME280;18912;43.270;27.942;2023-01-16T06:17:01;98030.66;;;11.26;69.84
32456;BME280;18912;43.270;27.942;2023-01-16T06:19:27;98035.13;;;11.96;67.62
32456;BME280;18912;43.270;27.942;2023-01-16T06:21:53;98025.69;;;11.67;67.66
32456;BME280;18912;43.270;27.942;2023-01-16T06:24:18;98035.69;;;11.67;67.57
32456;BME280;18912;43.270;27.942;2023-01-16T06:26:44;98037.38;;;11.68;67.37
32456;BME280;18912;43.270;27.942;2023-01-16T06:29:10;98044.41;;;12.06;66.23
32456;BME280;18912;43.270;27.942;2023-01-16T06:31:35;98027.47;;;11.86;66.70
32456;BME280;18912;43.270;27.942;2023-01-16T06:34:01;98036.22;;;11.82;66.42
32456;BME280;18912;43.270;27.942;2023-01-16T06:36:27;98034.81;;;11.79;67.00
32456;BME280;18912;43.270;27.942;2023-01-16T06:38:52;98044.81;;;11.79;67.37
32456;BME280;18912;43.270;27.942;2023-01-16T06:41:18;98036.91;;;11.71;67.57
32456;BME280;18912;43.270;27.942;2023-01-16T06:43:43;98040.91;;;12.06;67.11
32456;BME280;18912;43.270;27.942;2023-01-16T06:46:09;98039.63;;;12.08;67.24
32456;BME280;18912;43.270;27.942;2023-01-16T06:48:35;98038.31;;;11.86;68.11
32456;BME280;18912;43.270;27.942;2023-01-16T06:51:00;98038.09;;;12.19;66.42
32456;BME280;18912;43.270;27.942;2023-01-16T06:53:26;98038.25;;;11.93;66.94
32456;BME280;18912;43.270;27.942;2023-01-16T06:55:52;98042.47;;;12.20;66.31
32456;BME280;18912;43.270;27.942;2023-01-16T06:58:17;98043.34;;;11.76;67.74
32456;BME280;18912;43.270;27.942;2023-01-16T07:00:43;98034.38;;;12.13;66.06
32456;BME280;18912;43.270;27.942;2023-01-16T07:03:10;98041.28;;;12.09;66.50
32456;BME280;18912;43.270;27.942;2023-01-16T14:38:44;97587.34;;;10.80;100.00
32456;BME280;18912;43.270;27.942;2023-01-16T14:41:15;97584.06;;;10.78;100.00
32456;BME280;18912;43.270;27.942;2023-01-16T14:44:19;97590.09;;;10.74;100.00
32456;BME280;18912;43.270;27.942;2023-01-16T14:47:24;97582.78;;;10.81;99.67
32456;BME280;18912;43.270;27.942;2023-01-16T14:50:16;97597.69;;;10.65;99.36
32456;BME280;18912;43.270;27.942;2023-01-16T14:53:14;97568.75;;;10.41;100.00
32456;BME280;18912;43.270;27.942;2023-01-16T14:56:31;97565.50;;;10.57;100.00
32456;BME280;18912;43.270;27.942;2023-01-16T15:01:29;97560.94;;;10.58;100.00
32456;BME280;18912;43.270;27.942;2023-01-16T15:04:18;97561.84;;;10.45;100.00
32456;BME280;18912;43.270;27.942;2023-01-16T15:06:48;97570.44;;;10.35;100.00
32456;BME280;18912;43.270;27.942;2023-01-16T15:09:18;97562.97;;;10.62;100.00
32456;BME280;18912;43.270;27.942;2023-01-16T15:11:50;97565.84;;;10.67;100.00
32456;BME280;18912;43.270;27.942;2023-01-16T15:14:19;97570.16;;;10.75;100.00
32456;BME280;18912;43.270;27.942;2023-01-16T15:17:18;97558.25;;;10.58;100.00
32456;BME280;18912;43.270;27.942;2023-01-16T15:20:29;97566.63;;;10.50;100.00
32456;BME280;18912;43.270;27.942;2023-01-16T15:34:19;97559.22;;;10.63;100.00
32456;BME280;18912;43.270;27.942;2023-01-16T15:36:50;97586.25;;;10.63;100.00
32456;BME280;18912;43.270;27.942;2023-01-16T15:39:38;97569.47;;;10.79;100.00
32456;BME280;18912;43.270;27.942;2023-01-16T15:42:15;97567.94;;;10.65;100.00
32456;BME280;18912;43.270;27.942;2023-01-16T15:45:07;97571.13;;;10.80;100.00
32456;BME280;18912;43.270;27.942;2023-01-16T15:48:04;97561.75;;;10.58;100.00
32456;BME280;18912;43.270;27.942;2023-01-16T15:50:52;97567.38;;;10.57;100.00
32456;BME280;18912;43.270;27.942;2023-01-16T15:53:18;97591.75;;;10.99;100.00
32456;BME280;18912;43.270;27.942;2023-01-16T15:55:48;97573.81;;;11.23;100.00
32456;BME280;18912;43.270;27.942;2023-01-16T15:58:19;97566.81;;;10.97;99.11
32456;BME280;18912;43.270;27.942;2023-01-16T16:00:59;97574.75;;;10.92;100.00
32456;BME280;18912;43.270;27.942;2023-01-16T16:03:46;97580.78;;;10.45;100.00
32456;BME280;18912;43.270;27.942;2023-01-16T16:06:14;97578.19;;;10.57;100.00
32456;BME280;18912;43.270;27.942;2023-01-16T16:08:48;97567.38;;;10.81;100.00
32456;BME280;18912;43.270;27.942;2023-01-16T16:11:25;97573.16;;;10.60;100.00
32456;BME280;18912;43.270;27.942;2023-01-16T16:14:35;97565.41;;;10.70;100.00
32456;BME280;18912;43.270;27.942;2023-01-16T16:17:19;97586.25;;;10.88;99.90
32456;BME280;18912;43.270;27.942;2023-01-16T16:20:43;97562.81;;;11.00;99.08
32456;BME280;18912;43.270;27.942;2023-01-16T16:28:26;97565.19;;;11.14;97.89
32456;BME280;18912;43.270;27.942;2023-01-16T16:33:24;97564.13;;;11.15;97.46
32456;BME280;18912;43.270;27.942;2023-01-16T16:35:53;97555.94;;;11.22;97.00
32456;BME280;18912;43.270;27.942;2023-01-16T16:38:21;97565.78;;;11.16;96.83
32456;BME280;18912;43.270;27.942;2023-01-16T16:43:44;97550.53;;;11.22;97.30
32456;BME280;18912;43.270;27.942;2023-01-16T16:48:57;97549.91;;;11.02;98.14
32456;BME280;18912;43.270;27.942;2023-01-16T16:51:31;97545.69;;;10.88;98.48
32456;BME280;18912;43.270;27.942;2023-01-16T16:56:30;97543.00;;;11.06;98.45
32456;BME280;18912;43.270;27.942;2023-01-16T16:58:58;97544.16;;;11.16;98.13
32456;BME280;18912;43.270;27.942;2023-01-16T17:01:25;97539.19;;;11.32;96.93
32456;BME280;18912;43.270;27.942;2023-01-16T17:03:55;97548.03;;;11.02;98.73
32456;BME280;18912;43.270;27.942;2023-01-16T17:06:26;97544.41;;;10.90;98.76
32456;BME280;18912;43.270;27.942;2023-01-16T17:08:53;97545.47;;;10.89;99.31
32456;BME280;18912;43.270;27.942;2023-01-16T17:11:20;97532.03;;;11.19;98.94
32456;BME280;18912;43.270;27.942;2023-01-16T17:13:46;97535.72;;;11.06;99.31
32456;BME280;18912;43.270;27.942;2023-01-16T17:16:31;97526.50;;;10.96;100.00
32456;BME280;18912;43.270;27.942;2023-01-16T17:19:01;97526.44;;;11.20;99.67
32456;BME280;18912;43.270;27.942;2023-01-16T17:21:27;97538.28;;;11.01;99.88
32456;BME280;18912;43.270;27.942;2023-01-16T17:23:53;97525.28;;;10.92;100.00
32456;BME280;18912;43.270;27.942;2023-01-16T17:26:18;97528.22;;;11.08;100.00
32456;BME280;18912;43.270;27.942;2023-01-16T17:28:44;97525.44;;;11.15;100.00
32456;BME280;18912;43.270;27.942;2023-01-16T17:31:12;97532.94;;;10.95;100.00
32456;BME280;18912;43.270;27.942;2023-01-16T17:33:38;97523.72;;;11.20;100.00
32456;BME280;18912;43.270;27.942;2023-01-16T17:36:04;97525.06;;;11.29;99.78
32456;BME280;18912;43.270;27.942;2023-01-16T17:38:40;97521.22;;;11.19;100.00
32456;BME280;18912;43.270;27.942;2023-01-16T17:41:23;97525.38;;;11.03;100.00
32456;BME280;18912;43.270;27.942;2023-01-16T17:43:50;97526.41;;;11.39;100.00
32456;BME280;18912;43.270;27.942;2023-01-16T17:46:34;97514.03;;;11.13;100.00
32456;BME280;18912;43.270;27.942;2023-01-16T17:49:00;97509.66;;;11.12;100.00
32456;BME280;18912;43.270;27.942;2023-01-16T17:51:26;97509.66;;;11.12;100.00
32456;BME280;18912;43.270;27.942;2023-01-16T17:53:51;97512.50;;;10.99;100.00
32456;BME280;18912;43.270;27.942;2023-01-16T17:56:18;97524.22;;;11.29;99.41
32456;BME280;18912;43.270;27.942;2023-01-16T17:58:46;97508.81;;;11.48;98.62
32456;BME280;18912;43.270;27.942;2023-01-16T18:01:17;97494.84;;;11.32;99.13
32456;BME280;18912;43.270;27.942;2023-01-16T18:03:45;97495.91;;;11.32;99.18
32456;BME280;18912;43.270;27.942;2023-01-16T18:06:36;97498.31;;;11.03;99.78
32456;BME280;18912;43.270;27.942;2023-01-16T18:09:02;97502.53;;;10.99;100.00
32456;BME280;18912;43.270;27.942;2023-01-16T18:11:32;97480.44;;;11.20;100.00
32456;BME280;18912;43.270;27.942;2023-01-16T18:14:18;97485.41;;;11.05;100.00
32456;BME280;18912;43.270;27.942;2023-01-16T18:17:05;97471.41;;;11.08;100.00
32456;BME280;18912;43.270;27.942;2023-01-16T18:19:49;97467.66;;;11.09;100.00
32456;BME280;18912;43.270;27.942;2023-01-16T18:22:15;97476.66;;;11.21;100.00
32456;BME280;18912;43.270;27.942;2023-01-16T18:24:42;97459.84;;;11.01;100.00
32456;BME280;18912;43.270;27.942;2023-01-16T18:27:13;97455.13;;;11.15;100.00
32456;BME280;18912;43.270;27.942;2023-01-16T18:29:40;97463.00;;;11.16;100.00
32456;BME280;18912;43.270;27.942;2023-01-16T18:32:06;97463.50;;;11.25;100.00
32456;BME280;18912;43.270;27.942;2023-01-16T18:35:07;97450.94;;;11.30;99.99
32456;BME280;18912;43.270;27.942;2023-01-16T18:37:34;97453.22;;;11.15;100.00
32456;BME280;18912;43.270;27.942;2023-01-16T18:40:01;97450.44;;;11.22;100.00
32456;BME280;18912;43.270;27.942;2023-01-16T18:42:46;97438.91;;;11.15;100.00
32456;BME280;18912;43.270;27.942;2023-01-16T18:45:30;97456.47;;;11.06;100.00
32456;BME280;18912;43.270;27.942;2023-01-16T18:48:15;97454.66;;;11.18;100.00
32456;BME280;18912;43.270;27.942;2023-01-16T18:51:00;97446.00;;;11.09;100.00
32456;BME280;18912;43.270;27.942;2023-01-16T18:53:51;97466.75;;;11.15;100.00
32456;BME280;18912;43.270;27.942;2023-01-16T18:56:38;97452.03;;;11.59;99.44
32456;BME280;18912;43.270;27.942;2023-01-16T18:59:25;97460.94;;;11.78;96.98
32456;BME280;18912;43.270;27.942;2023-01-16T19:04:35;97432.88;;;11.13;100.00
32456;BME280;18912;43.270;27.942;2023-01-16T19:07:05;97433.63;;;11.20;99.68
32456;BME280;18912;43.270;27.942;2023-01-16T19:09:32;97432.38;;;11.34;97.82
32456;BME280;18912;43.270;27.942;2023-01-16T19:11:58;97431.75;;;11.20;97.72
32456;BME280;18912;43.270;27.942;2023-01-16T19:14:28;97424.38;;;11.09;98.14
32456;BME280;18912;43.270;27.942;2023-01-16T19:16:54;97422.66;;;11.15;96.64
32456;BME280;18912;43.270;27.942;2023-01-16T19:19:22;97426.34;;;11.20;96.05
32456;BME280;18912;43.270;27.942;2023-01-16T19:21:53;97406.69;;;10.95;95.79
32456;BME280;18912;43.270;27.942;2023-01-16T19:24:19;97407.00;;;11.17;95.75
32456;BME280;18912;43.270;27.942;2023-01-16T19:26:44;97401.41;;;11.18;94.58
32456;BME280;18912;43.270;27.942;2023-01-16T19:29:15;97413.03;;;11.49;93.39
32456;BME280;18912;43.270;27.942;2023-01-16T19:31:41;97411.91;;;10.90;96.17
32456;BME280;18912;43.270;27.942;2023-01-16T19:34:08;97408.72;;;11.29;95.47
32456;BME280;18912;43.270;27.942;2023-01-16T19:36:34;97408.63;;;11.06;96.65
32456;BME280;18912;43.270;27.942;2023-01-16T19:39:00;97420.34;;;11.00;96.03
32456;BME280;18912;43.270;27.942;2023-01-16T19:41:26;97415.81;;;10.94;96.49
32456;BME280;18912;43.270;27.942;2023-01-16T19:44:11;97415.53;;;11.20;95.22
32456;BME280;18912;43.270;27.942;2023-01-16T19:46:55;97407.00;;;11.35;94.80
32456;BME280;18912;43.270;27.942;2023-01-16T19:49:21;97412.16;;;10.89;96.38
32456;BME280;18912;43.270;27.942;2023-01-16T19:51:46;97416.66;;;11.13;95.80
32456;BME280;18912;43.270;27.942;2023-01-16T19:54:12;97411.28;;;11.24;94.39
32456;BME280;18912;43.270;27.942;2023-01-16T19:56:38;97396.88;;;11.12;94.25
32456;BME280;18912;43.270;27.942;2023-01-16T19:59:06;97417.16;;;11.21;93.05
32456;BME280;18912;43.270;27.942;2023-01-16T20:02:05;97388.13;;;11.28;93.50
32456;BME280;18912;43.270;27.942;2023-01-16T20:04:36;97392.88;;;11.33;92.93
32456;BME280;18912;43.270;27.942;2023-01-16T20:07:04;97393.06;;;11.02;94.39
32456;BME280;18912;43.270;27.942;2023-01-16T20:09:34;97388.19;;;11.10;94.96
32456;BME280;18912;43.270;27.942;2023-01-16T20:12:01;97391.72;;;11.41;93.91
32456;BME280;18912;43.270;27.942;2023-01-16T20:14:45;97394.31;;;11.17;96.73
32456;BME280;18912;43.270;27.942;2023-01-16T20:17:11;97376.41;;;11.35;95.82
32456;BME280;18912;43.270;27.942;2023-01-16T20:19:39;97391.41;;;11.01;97.34
32456;BME280;18912;43.270;27.942;2023-01-16T20:22:06;97395.22;;;11.11;97.83
32456;BME280;18912;43.270;27.942;2023-01-16T20:24:31;97369.22;;;11.40;96.11
32456;BME280;18912;43.270;27.942;2023-01-16T20:26:57;97387.28;;;11.16;96.12
32456;BME280;18912;43.270;27.942;2023-01-16T20:29:24;97385.78;;;11.02;97.71
32456;BME280;18912;43.270;27.942;2023-01-16T20:31:50;97390.22;;;11.26;97.48
32456;BME280;18912;43.270;27.942;2023-01-16T20:34:16;97380.13;;;11.04;98.49
32456;BME280;18912;43.270;27.942;2023-01-16T20:36:41;97397.06;;;11.29;96.58
32456;BME280;18912;43.270;27.942;2023-01-16T20:39:08;97387.44;;;11.33;95.84
32456;BME280;18912;43.270;27.942;2023-01-16T20:41:34;97381.69;;;11.29;95.89
32456;BME280;18912;43.270;27.942;2023-01-16T20:44:20;97387.72;;;11.13;95.82
32456;BME280;18912;43.270;27.942;2023-01-16T20:47:05;97382.69;;;11.47;94.80
32456;BME280;18912;43.270;27.942;2023-01-16T20:49:31;97376.44;;;11.16;94.76
32456;BME280;18912;43.270;27.942;2023-01-16T20:51:57;97377.00;;;11.37;94.49
32456;BME280;18912;43.270;27.942;2023-01-16T20:54:23;97381.97;;;11.40;93.38
32456;BME280;18912;43.270;27.942;2023-01-16T20:56:50;97374.47;;;11.65;91.80
32456;BME280;18912;43.270;27.942;2023-01-16T20:59:15;97373.00;;;11.39;92.12
32456;BME280;18912;43.270;27.942;2023-01-16T21:01:41;97368.03;;;11.06;93.38
32456;BME280;18912;43.270;27.942;2023-01-16T21:04:07;97357.53;;;11.16;92.68
32456;BME280;18912;43.270;27.942;2023-01-16T21:06:33;97343.25;;;11.39;91.47
32456;BME280;18912;43.270;27.942;2023-01-16T21:08:58;97363.47;;;11.37;92.36
32456;BME280;18912;43.270;27.942;2023-01-16T21:11:24;97368.84;;;11.55;91.04
32456;BME280;18912;43.270;27.942;2023-01-16T21:14:09;97368.88;;;11.37;91.54
32456;BME280;18912;43.270;27.942;2023-01-16T21:16:38;97379.16;;;11.46;90.99
32456;BME280;18912;43.270;27.942;2023-01-16T21:19:22;97379.41;;;11.26;91.45
32456;BME280;18912;43.270;27.942;2023-01-16T21:22:06;97370.97;;;11.35;91.05
32456;BME280;18912;43.270;27.942;2023-01-16T21:24:32;97369.16;;;11.47;91.11
32456;BME280;18912;43.270;27.942;2023-01-16T21:26:57;97365.88;;;11.15;92.18
32456;BME280;18912;43.270;27.942;2023-01-16T21:29:23;97367.63;;;10.91;93.57
32456;BME280;18912;43.270;27.942;2023-01-16T21:31:48;97369.88;;;10.76;95.58
32456;BME280;18912;43.270;27.942;2023-01-16T21:34:14;97376.72;;;11.26;93.05
32456;BME280;18912;43.270;27.942;2023-01-16T21:36:39;97381.28;;;10.96;94.70
32456;BME280;18912;43.270;27.942;2023-01-16T21:39:08;97373.53;;;11.00;95.25
32456;BME280;18912;43.270;27.942;2023-01-16T21:41:35;97376.56;;;11.40;93.59
32456;BME280;18912;43.270;27.942;2023-01-16T21:44:21;97376.56;;;11.40;92.12
32456;BME280;18912;43.270;27.942;2023-01-16T21:47:05;97376.41;;;11.35;91.68
32456;BME280;18912;43.270;27.942;2023-01-16T21:49:30;97366.34;;;11.23;92.56
32456;BME280;18912;43.270;27.942;2023-01-16T21:51:56;97373.59;;;11.11;92.87
32456;BME280;18912;43.270;27.942;2023-01-16T21:54:22;97369.38;;;11.15;91.50
32456;BME280;18912;43.270;27.942;2023-01-16T21:56:47;97356.09;;;11.14;91.04
32456;BME280;18912;43.270;27.942;2023-01-16T21:59:14;97343.72;;;11.06;91.32
32456;BME280;18912;43.270;27.942;2023-01-16T22:01:39;97360.94;;;11.23;90.94
32456;BME280;18912;43.270;27.942;2023-01-16T22:04:05;97341.72;;;11.13;91.24